createdAt,value
2023-04-27T00:00:56.672Z,43.84
2023-04-27T00:03:27.040Z,43.84
2023-04-27T00:05:57.335Z,43.81
2023-04-27T00:08:27.433Z,43.81
2023-04-27T00:10:57.521Z,43.98
2023-04-27T00:13:30.375Z,44.07
2023-04-27T00:16:03.451Z,43.77
2023-04-27T00:18:33.852Z,44.05
2023-04-27T00:21:04.073Z,43.93
2023-04-27T00:23:34.083Z,43.92
2023-04-27T00:26:04.308Z,44.01
2023-04-27T00:28:36.955Z,43.75
2023-04-27T00:31:07.578Z,43.82
2023-04-27T00:33:37.727Z,43.83
2023-04-27T00:36:08.607Z,43.99
2023-04-27T00:38:38.684Z,43.87
2023-04-27T00:41:10.737Z,44.03
2023-04-27T00:43:48.625Z,43.86
2023-04-27T00:46:20.260Z,43.75
2023-04-27T00:48:51.247Z,43.93
2023-04-27T00:51:21.525Z,44.06
2023-04-27T00:53:55.562Z,44.05
2023-04-27T00:56:25.982Z,44.17
2023-04-27T00:58:58.958Z,44.07
2023-04-27T01:01:29.897Z,44.20
2023-04-27T01:04:00.178Z,44.09
2023-04-27T01:06:32.049Z,43.98
2023-04-27T01:09:02.097Z,44.03
2023-04-27T01:11:32.244Z,44.05
2023-04-27T01:14:07.492Z,43.82
2023-04-27T01:16:38.157Z,43.77
2023-04-27T01:19:08.325Z,43.82
2023-04-27T01:21:38.455Z,43.76
2023-04-27T01:24:12.777Z,43.60
2023-04-27T01:26:42.763Z,43.87
2023-04-27T01:29:13.991Z,43.62
2023-04-27T01:31:44.820Z,43.78
2023-04-27T01:34:14.965Z,43.83
2023-04-27T01:36:44.987Z,43.73
2023-04-27T01:39:17.874Z,44.04
2023-04-27T01:41:47.903Z,43.75
2023-04-27T01:44:18.220Z,43.87
2023-04-27T01:46:48.436Z,44.05
2023-04-27T01:49:18.681Z,43.85
2023-04-27T01:51:48.886Z,43.97
2023-04-27T01:54:22.373Z,43.95
2023-04-27T01:56:52.699Z,43.85
2023-04-27T01:59:22.842Z,43.90
2023-04-27T02:01:52.949Z,43.90
2023-04-27T02:04:23.250Z,43.82
2023-04-27T02:06:53.489Z,43.69
2023-04-27T02:09:26.130Z,43.69
2023-04-27T02:11:56.201Z,43.88
2023-04-27T02:14:26.279Z,43.56
2023-04-27T02:16:56.391Z,43.87
2023-04-27T02:19:26.464Z,43.97
2023-04-27T02:21:56.591Z,43.88
2023-04-27T02:24:29.282Z,43.98
2023-04-27T02:26:59.468Z,43.90
2023-04-27T02:29:33.419Z,43.85
2023-04-27T02:32:03.998Z,44.46
2023-04-27T02:34:35.425Z,43.96
2023-04-27T02:37:06.322Z,44.14
2023-04-27T02:39:39.008Z,44.25
2023-04-27T02:42:09.708Z,44.34
2023-04-27T02:44:40.702Z,44.23
2023-04-27T02:47:10.926Z,44.42
2023-04-27T02:49:41.191Z,44.58
2023-04-27T02:52:11.367Z,44.63
2023-04-27T02:54:44.106Z,44.69
2023-04-27T02:57:14.183Z,44.93
2023-04-27T02:59:44.355Z,44.79
2023-04-27T03:02:14.509Z,44.76
2023-04-27T03:04:44.722Z,45.08
2023-04-27T03:07:15.082Z,44.90
2023-04-27T03:09:47.871Z,44.94
2023-04-27T03:12:17.901Z,44.91
2023-04-27T03:14:47.994Z,44.81
2023-04-27T03:17:18.198Z,44.83
2023-04-27T03:19:51.942Z,44.82
2023-04-27T03:22:22.022Z,44.96
2023-04-27T03:24:54.977Z,44.89
2023-04-27T04:05:47.336Z,45.20
2023-04-27T04:08:17.940Z,45.05
2023-04-27T04:10:48.018Z,44.91
2023-04-27T04:13:18.314Z,45.02
2023-04-27T04:15:48.989Z,45.08
2023-04-27T04:18:19.094Z,44.88
2023-04-27T04:20:52.214Z,44.95
2023-04-27T04:23:22.449Z,44.88
2023-04-27T04:25:52.889Z,44.82
2023-04-27T04:28:24.032Z,45.07
2023-04-27T04:30:55.010Z,44.81
2023-04-27T04:33:26.475Z,44.54
2023-04-27T04:35:59.207Z,44.60
2023-04-27T04:38:29.443Z,44.77
2023-04-27T04:40:59.543Z,44.64
2023-04-27T04:43:33.009Z,44.47
2023-04-27T04:46:06.621Z,44.61
2023-04-27T04:48:37.822Z,44.53
2023-04-27T04:51:10.842Z,44.41
2023-04-27T04:53:40.997Z,44.23
2023-04-27T04:56:15.080Z,44.14
2023-04-27T04:58:45.402Z,44.19
2023-04-27T05:01:15.598Z,44.44
2023-04-27T05:03:45.847Z,44.28
2023-04-27T05:06:18.622Z,44.39
2023-04-27T05:08:48.741Z,44.17
2023-04-27T05:11:18.862Z,43.94
2023-04-27T05:13:48.844Z,44.00
2023-04-27T05:16:18.895Z,43.75
2023-04-27T05:18:48.972Z,43.81
2023-04-27T05:21:22.362Z,43.61
2023-04-27T05:23:52.584Z,43.44
2023-04-27T05:26:22.669Z,43.64
2023-04-27T05:28:52.850Z,43.56
2023-04-27T05:31:23.151Z,43.79
2023-04-27T05:33:53.271Z,43.26
2023-04-27T05:36:27.240Z,43.28
2023-04-27T05:38:59.822Z,43.28
2023-04-27T05:41:29.883Z,43.25
2023-04-27T05:44:00.020Z,43.16
2023-04-27T05:46:30.212Z,42.55
2023-04-27T05:49:00.307Z,42.33
2023-04-27T05:51:36.259Z,42.50
2023-04-27T05:54:06.501Z,42.20
2023-04-27T05:56:38.030Z,41.98
2023-04-27T05:59:08.259Z,41.80
2023-04-27T06:01:38.392Z,42.00
2023-04-27T06:04:08.558Z,41.39
2023-04-27T06:06:41.356Z,40.98
2023-04-27T06:09:11.605Z,40.54
2023-04-27T06:11:41.864Z,40.41
2023-04-27T06:14:12.079Z,39.65
2023-04-27T06:16:45.205Z,39.44
2023-04-27T06:19:15.685Z,39.26
2023-04-27T06:21:48.540Z,39.34
2023-04-27T06:24:19.399Z,39.10
2023-04-27T06:26:49.533Z,39.61
2023-04-27T06:29:19.711Z,38.89
2023-04-27T06:31:49.948Z,38.27
2023-04-27T06:34:20.039Z,37.86
2023-04-27T06:36:52.753Z,36.84
2023-04-27T06:39:22.860Z,36.66
2023-04-27T06:41:54.057Z,36.43
2023-04-27T06:44:24.114Z,35.70
2023-04-27T06:46:54.196Z,35.70
2023-04-27T06:49:24.415Z,35.45
2023-04-27T06:52:00.376Z,35.74
2023-04-27T06:54:30.643Z,35.94
2023-04-27T06:57:00.763Z,35.79
2023-04-27T06:59:30.766Z,35.39
2023-04-27T07:02:01.081Z,35.31
2023-04-27T07:04:31.312Z,34.04
2023-04-27T07:07:04.056Z,32.28
2023-04-27T07:09:34.362Z,31.35
2023-04-27T07:12:04.665Z,29.69
2023-04-27T07:14:34.701Z,30.66
2023-04-27T07:17:04.907Z,31.34
2023-04-27T07:19:35.092Z,31.73
2023-04-27T07:22:07.776Z,30.76
2023-04-27T07:24:37.820Z,29.59
2023-04-27T07:27:08.362Z,29.41
2023-04-27T07:29:38.443Z,28.40
2023-04-27T07:32:09.687Z,26.94
2023-04-27T07:34:52.731Z,25.43
2023-04-27T07:37:28.936Z,25.77
2023-04-27T07:39:59.726Z,26.67
2023-04-27T07:42:29.819Z,26.38
2023-04-27T07:45:00.180Z,26.48
2023-04-27T07:47:30.200Z,27.97
2023-04-27T07:50:00.705Z,28.14
2023-04-27T07:52:33.421Z,28.44
2023-04-27T07:55:04.058Z,28.34
2023-04-27T07:57:34.257Z,27.40
2023-04-27T08:00:06.785Z,25.10
2023-04-27T08:02:43.143Z,26.11
2023-04-27T08:05:14.179Z,25.06
2023-04-27T08:07:47.799Z,24.24
2023-04-27T08:10:18.740Z,25.45
2023-04-27T08:12:48.804Z,26.30
2023-04-27T08:15:19.105Z,27.02
2023-04-27T08:17:49.379Z,25.93
2023-04-27T08:20:20.980Z,25.79
2023-04-27T08:22:54.163Z,26.00
2023-04-27T08:25:24.528Z,26.23
2023-04-27T08:27:55.598Z,26.45
2023-04-27T08:30:26.118Z,25.01
2023-04-27T08:32:56.885Z,24.60
2023-04-27T08:35:27.049Z,23.69
2023-04-27T08:37:59.675Z,23.88
2023-04-27T08:40:29.931Z,24.21
2023-04-27T08:43:01.301Z,24.83
2023-04-27T08:45:31.772Z,25.52
2023-04-27T08:48:01.868Z,25.45
2023-04-27T08:50:32.690Z,25.15
2023-04-27T08:53:05.424Z,25.48
2023-04-27T08:55:35.885Z,24.67
2023-04-27T08:58:06.425Z,25.19
2023-04-27T09:00:42.476Z,26.61
2023-04-27T09:03:25.072Z,28.21
2023-04-27T09:06:03.715Z,28.86
2023-04-27T09:08:48.035Z,29.04
2023-04-27T09:11:19.611Z,29.46
2023-04-27T09:13:50.242Z,29.30
2023-04-27T09:16:30.037Z,29.49
2023-04-27T09:19:02.861Z,27.69
2023-04-27T09:21:44.156Z,26.88
2023-04-27T09:24:20.534Z,26.73
2023-04-27T09:26:55.829Z,26.06
2023-04-27T09:29:35.891Z,26.00
2023-04-27T09:32:17.115Z,26.83
2023-04-27T09:34:51.729Z,27.22
2023-04-27T09:37:27.580Z,27.83
2023-04-27T09:40:09.841Z,28.43
2023-04-27T09:42:44.715Z,28.38
2023-04-27T09:45:15.530Z,28.94
2023-04-27T09:47:46.705Z,28.70
2023-04-27T09:50:21.905Z,28.67
2023-04-27T09:52:55.754Z,28.04
2023-04-27T09:55:36.509Z,28.13
2023-04-27T09:58:27.135Z,28.13
2023-04-27T10:01:07.851Z,28.04
2023-04-27T10:03:50.728Z,28.43
2023-04-27T10:06:57.653Z,29.15
2023-04-27T10:09:31.971Z,28.26
2023-04-27T10:12:23.876Z,27.21
2023-04-27T10:14:55.773Z,25.74
2023-04-27T10:17:33.133Z,26.02
2023-04-27T10:20:05.081Z,26.66
2023-04-27T10:22:43.236Z,26.94
2023-04-27T10:25:21.849Z,27.55
2023-04-27T10:27:56.838Z,27.50
2023-04-27T10:30:30.727Z,28.09
2023-04-27T10:33:02.572Z,27.33
2023-04-27T10:35:39.677Z,26.80
2023-04-27T10:38:11.315Z,25.40
2023-04-27T10:40:41.782Z,23.02
2023-04-27T10:43:18.442Z,21.49
2023-04-27T10:45:49.073Z,20.97
2023-04-27T10:48:19.331Z,19.44
2023-04-27T10:50:49.695Z,18.12
2023-04-27T10:53:19.821Z,18.39
2023-04-27T10:55:49.857Z,19.48
2023-04-27T10:58:34.604Z,20.54
2023-04-27T11:01:15.322Z,21.38
2023-04-27T11:03:49.123Z,21.69
2023-04-27T11:06:20.383Z,22.73
2023-04-27T11:08:50.733Z,24.12
2023-04-27T11:11:21.028Z,24.01
2023-04-27T11:13:56.937Z,24.58
2023-04-27T11:16:27.217Z,24.54
2023-04-27T11:19:00.932Z,23.42
2023-04-27T11:21:32.477Z,22.09
2023-04-27T11:24:07.182Z,20.47
2023-04-27T11:26:37.406Z,20.94
2023-04-27T11:29:14.458Z,22.45
2023-04-27T11:31:48.795Z,23.39
2023-04-27T11:34:19.818Z,23.42
2023-04-27T11:37:16.760Z,24.23
2023-04-27T11:39:48.646Z,24.40
2023-04-27T11:42:21.348Z,25.17
2023-04-27T11:45:00.024Z,25.65
2023-04-27T11:47:35.450Z,25.79
2023-04-27T11:50:08.125Z,26.24
2023-04-27T11:52:40.259Z,26.82
2023-04-27T11:55:16.402Z,26.57
2023-04-27T11:57:46.695Z,26.67
2023-04-27T12:00:20.839Z,27.12
2023-04-27T12:02:51.179Z,27.19
2023-04-27T12:05:23.687Z,27.83
2023-04-27T12:07:58.417Z,27.26
2023-04-27T12:10:28.660Z,26.40
2023-04-27T12:12:58.913Z,26.23
2023-04-27T12:15:34.207Z,25.57
2023-04-27T12:18:04.429Z,25.65
2023-04-27T12:20:34.524Z,26.10
2023-04-27T12:23:04.709Z,25.99
2023-04-27T12:25:34.833Z,25.35
2023-04-27T12:28:04.945Z,24.69
2023-04-27T12:30:38.005Z,24.03
2023-04-27T12:33:11.355Z,24.77
2023-04-27T12:35:41.522Z,24.38
2023-04-27T12:38:11.705Z,24.23
2023-04-27T12:40:41.886Z,24.78
2023-04-27T12:43:12.975Z,25.17
2023-04-27T12:45:45.920Z,24.87
2023-04-27T12:48:17.558Z,25.19
2023-04-27T12:50:48.013Z,25.96
2023-04-27T12:53:18.115Z,26.27
2023-04-27T12:55:49.182Z,26.06
2023-04-27T12:58:19.575Z,25.62
2023-04-27T13:00:52.344Z,23.34
2023-04-27T13:03:22.531Z,21.52
2023-04-27T13:05:52.964Z,21.69
2023-04-27T13:08:23.290Z,21.90
2023-04-27T13:10:53.444Z,21.88
2023-04-27T13:13:23.640Z,22.36
2023-04-27T13:15:56.589Z,23.26
2023-04-27T13:18:26.876Z,23.88
2023-04-27T13:20:58.291Z,23.17
2023-04-27T13:23:28.786Z,22.51
2023-04-27T13:25:59.147Z,21.60
2023-04-27T13:28:29.302Z,21.96
2023-04-27T13:31:02.072Z,21.75
2023-04-27T13:33:32.293Z,22.21
2023-04-27T13:36:04.053Z,20.29
2023-04-27T13:38:34.142Z,19.88
2023-04-27T13:41:04.407Z,20.15
2023-04-27T13:43:34.772Z,20.77
2023-04-27T13:46:07.827Z,21.14
2023-04-27T13:48:37.945Z,22.00
2023-04-27T13:51:08.192Z,22.17
2023-04-27T13:53:38.573Z,22.57
2023-04-27T13:56:09.431Z,21.82
2023-04-27T13:58:41.390Z,22.50
2023-04-27T14:01:14.122Z,23.04
2023-04-27T14:03:44.621Z,23.03
2023-04-27T14:06:15.235Z,23.73
2023-04-27T14:08:45.350Z,24.06
2023-04-27T14:11:15.953Z,24.11
2023-04-27T14:13:46.511Z,23.85
2023-04-27T14:16:19.306Z,24.07
2023-04-27T14:18:49.523Z,24.36
2023-04-27T14:21:34.528Z,25.24
2023-04-27T14:24:04.680Z,25.32
2023-04-27T14:26:34.828Z,24.79
2023-04-27T14:29:05.000Z,23.94
2023-04-27T14:31:38.076Z,24.63
2023-04-27T14:34:08.564Z,25.29
2023-04-27T14:36:39.363Z,25.22
2023-04-27T14:39:09.901Z,24.93
2023-04-27T14:41:40.191Z,24.57
2023-04-27T14:44:11.376Z,24.74
2023-04-27T14:46:44.235Z,24.35
2023-04-27T14:49:14.842Z,24.30
2023-04-27T14:51:45.346Z,24.73
2023-04-27T14:54:18.453Z,24.44
2023-04-27T14:56:49.360Z,24.84
2023-04-27T14:59:19.589Z,24.87
2023-04-27T15:01:52.515Z,25.30
2023-04-27T15:04:23.219Z,24.65
2023-04-27T15:06:53.492Z,25.06
2023-04-27T15:09:23.574Z,25.68
2023-04-27T15:11:53.608Z,25.78
2023-04-27T15:14:23.748Z,24.72
2023-04-27T15:16:56.814Z,25.42
2023-04-27T15:19:26.982Z,25.60
2023-04-27T15:21:57.148Z,25.43
2023-04-27T15:24:27.262Z,25.27
2023-04-27T15:26:57.421Z,25.40
2023-04-27T15:29:31.265Z,25.05
2023-04-27T15:32:04.179Z,25.71
2023-04-27T15:34:34.284Z,25.73
2023-04-27T15:37:04.383Z,25.74
2023-04-27T15:39:34.516Z,25.60
2023-04-27T15:42:04.720Z,24.60
2023-04-27T15:44:34.967Z,24.77
2023-04-27T15:47:08.330Z,24.69
2023-04-27T15:49:53.675Z,24.25
2023-04-27T15:52:34.564Z,23.86
2023-04-27T15:55:04.698Z,24.57
2023-04-27T15:57:34.787Z,24.44
2023-04-27T16:00:07.076Z,24.52
2023-04-27T16:02:43.962Z,25.26
2023-04-27T16:05:17.295Z,24.81
2023-04-27T16:07:48.454Z,25.47
2023-04-27T16:10:21.014Z,25.11
2023-04-27T16:12:51.248Z,25.35
2023-04-27T16:15:22.853Z,25.70
2023-04-27T16:17:55.786Z,25.99
2023-04-27T16:20:29.045Z,26.91
2023-04-27T16:22:59.156Z,26.25
2023-04-27T16:25:29.600Z,26.68
2023-04-27T16:28:01.688Z,26.62
2023-04-27T16:30:31.787Z,26.31
2023-04-27T16:33:04.629Z,26.53
2023-04-27T16:35:34.870Z,27.10
2023-04-27T16:38:06.174Z,26.90
2023-04-27T16:40:36.876Z,26.73
2023-04-27T16:43:07.288Z,26.75
2023-04-27T16:45:38.737Z,26.36
2023-04-27T16:48:12.594Z,26.17
2023-04-27T16:50:43.055Z,26.46
2023-04-27T16:53:21.296Z,26.23
2023-04-27T16:55:51.533Z,26.63
2023-04-27T16:58:22.361Z,26.92
2023-04-27T17:00:52.828Z,26.00
2023-04-27T17:03:26.236Z,26.08
2023-04-27T17:05:56.666Z,26.14
2023-04-27T17:08:26.968Z,26.68
2023-04-27T17:10:57.156Z,26.33
2023-04-27T17:13:28.103Z,26.46
2023-04-27T17:16:01.102Z,26.04
2023-04-27T17:18:34.272Z,25.81
2023-04-27T17:21:04.437Z,26.19
2023-04-27T17:23:34.764Z,26.52
2023-04-27T17:26:07.862Z,26.21
2023-04-27T17:28:38.206Z,26.64
2023-04-27T17:31:09.647Z,27.14
2023-04-27T17:33:43.695Z,27.25
2023-04-27T17:36:15.162Z,27.38
2023-04-27T17:38:46.605Z,27.67
2023-04-27T17:41:16.650Z,27.39
2023-04-27T17:43:46.965Z,27.59
2023-04-27T17:46:17.287Z,27.86
2023-04-27T17:48:49.995Z,28.21
2023-04-27T17:51:20.390Z,27.82
2023-04-27T17:53:50.609Z,28.29
2023-04-27T17:56:20.917Z,28.03
2023-04-27T17:58:51.222Z,28.21
2023-04-27T18:01:21.783Z,28.34
2023-04-27T18:03:54.888Z,28.97
2023-04-27T18:06:25.129Z,28.78
2023-04-27T18:08:55.146Z,29.24
2023-04-27T18:11:25.294Z,29.65
2023-04-27T18:13:58.036Z,29.59
2023-04-27T18:16:28.371Z,29.49
2023-04-27T18:19:01.121Z,29.80
2023-04-27T18:21:31.900Z,30.20
2023-04-27T18:24:02.048Z,30.30
2023-04-27T18:26:32.963Z,30.46
2023-04-27T18:29:03.264Z,30.94
2023-04-27T18:31:33.618Z,30.94
2023-04-27T18:34:06.654Z,31.26
2023-04-27T18:36:36.821Z,31.16
2023-04-27T18:39:07.081Z,31.19
2023-04-27T18:41:37.189Z,31.68
2023-04-27T18:44:08.096Z,31.55
2023-04-27T18:46:39.025Z,32.29
2023-04-27T18:49:12.426Z,32.45
2023-04-27T18:51:42.941Z,32.42
2023-04-27T18:54:13.203Z,32.67
2023-04-27T18:56:43.565Z,32.86
2023-04-27T18:59:14.027Z,32.88
2023-04-27T19:01:44.568Z,32.43
2023-04-27T19:04:17.505Z,32.25
2023-04-27T19:06:47.963Z,32.10
2023-04-27T19:09:18.358Z,32.69
2023-04-27T19:11:56.122Z,32.85
2023-04-27T19:14:32.442Z,32.66
2023-04-27T19:17:08.505Z,33.13
2023-04-27T19:19:53.093Z,33.19
2023-04-27T19:22:23.224Z,33.34
2023-04-27T19:24:53.404Z,33.14
2023-04-27T19:27:23.476Z,33.86
2023-04-27T19:29:55.153Z,34.29
2023-04-27T19:32:27.340Z,33.71
2023-04-27T19:35:01.378Z,33.68
2023-04-27T19:37:31.678Z,34.45
2023-04-27T19:40:01.813Z,34.68
2023-04-27T19:42:32.208Z,34.87
2023-04-27T19:45:04.025Z,34.42
2023-04-27T19:47:34.248Z,35.04
2023-04-27T19:50:07.708Z,34.53
2023-04-27T19:52:37.925Z,34.81
2023-04-27T19:55:08.700Z,34.92
2023-04-27T19:57:39.280Z,34.90
2023-04-27T20:00:12.361Z,35.57
2023-04-27T20:02:45.324Z,35.18
2023-04-27T20:05:18.238Z,35.20
2023-04-27T20:07:50.147Z,35.00
2023-04-27T20:10:22.836Z,35.65
2023-04-27T20:12:57.145Z,36.25
2023-04-27T20:15:27.889Z,35.47
2023-04-27T20:17:58.235Z,36.57
2023-04-27T20:20:35.809Z,36.02
2023-04-27T20:23:06.262Z,35.52
2023-04-27T20:25:37.847Z,36.13
2023-04-27T20:28:08.189Z,36.91
2023-04-27T20:30:38.380Z,37.33
2023-04-27T20:33:08.866Z,37.42
2023-04-27T20:35:42.692Z,38.25
2023-04-27T20:38:13.351Z,38.17
2023-04-27T20:40:43.543Z,37.94
2023-04-27T20:43:13.775Z,38.50
2023-04-27T20:45:44.160Z,38.47
2023-04-27T20:48:14.417Z,38.66
2023-04-27T20:50:47.102Z,38.91
2023-04-27T20:53:17.528Z,39.13
2023-04-27T20:55:47.806Z,39.36
2023-04-27T20:58:19.647Z,39.44
2023-04-27T21:00:52.811Z,39.55
2023-04-27T21:03:23.133Z,38.86
2023-04-27T21:05:58.944Z,39.45
2023-04-27T21:08:29.244Z,39.44
2023-04-27T21:10:59.447Z,39.65
2023-04-27T21:13:29.600Z,39.91
2023-04-27T21:15:59.652Z,39.76
2023-04-27T21:18:30.722Z,39.65
2023-04-27T21:21:03.804Z,39.42
2023-04-27T21:23:40.751Z,39.59
2023-04-27T21:26:11.288Z,39.61
2023-04-27T21:28:42.092Z,39.95
2023-04-27T21:31:12.706Z,39.80
2023-04-27T21:33:42.968Z,40.03
2023-04-27T21:36:15.662Z,40.01
2023-04-27T21:38:48.096Z,40.29
2023-04-27T21:41:18.406Z,40.22
2023-04-27T21:43:48.755Z,39.47
2023-04-27T21:46:20.913Z,39.84
2023-04-27T21:48:53.804Z,39.39
2023-04-27T21:51:29.536Z,40.22
2023-04-27T21:53:59.756Z,40.45
2023-04-27T21:56:29.837Z,40.04
2023-04-27T21:59:00.207Z,40.70
2023-04-27T22:01:31.053Z,40.61
2023-04-27T22:04:02.317Z,40.57
2023-04-27T22:06:35.983Z,40.33
2023-04-27T22:09:08.163Z,39.94
2023-04-27T22:11:38.391Z,40.50
2023-04-27T22:14:08.593Z,40.54
2023-04-27T22:16:38.842Z,40.58
2023-04-27T22:19:09.385Z,40.88
2023-04-27T22:21:42.034Z,41.03
2023-04-27T22:24:12.141Z,41.02
2023-04-27T22:26:42.181Z,40.87
2023-04-27T22:29:12.369Z,40.81
2023-04-27T22:31:43.072Z,40.70
2023-04-27T22:34:15.097Z,41.41
2023-04-27T22:36:48.182Z,41.28
2023-04-27T22:39:18.381Z,41.11
2023-04-27T22:41:48.794Z,41.15
2023-04-27T22:44:18.874Z,41.36
2023-04-27T22:46:48.957Z,41.31
2023-04-27T22:49:19.361Z,41.20
2023-04-27T22:51:54.149Z,41.38
2023-04-27T22:54:24.601Z,41.25
2023-04-27T22:56:54.694Z,41.17
2023-04-27T22:59:25.558Z,40.94
2023-04-27T23:01:55.702Z,41.02
2023-04-27T23:04:26.710Z,41.28
2023-04-27T23:06:59.702Z,40.82
2023-04-27T23:09:29.902Z,41.47
2023-04-27T23:12:01.216Z,41.98
2023-04-27T23:14:46.451Z,42.16
2023-04-27T23:17:17.185Z,42.42
2023-04-27T23:19:47.241Z,42.37
2023-04-27T23:22:19.909Z,42.54
2023-04-27T23:24:50.172Z,42.41
2023-04-27T23:27:20.511Z,42.61
2023-04-27T23:29:50.589Z,42.79
2023-04-27T23:32:20.713Z,42.54
2023-04-27T23:34:51.032Z,42.97
2023-04-27T23:37:25.073Z,43.39
2023-04-27T23:39:55.255Z,43.48
2023-04-27T23:42:25.346Z,43.64
2023-04-27T23:44:55.998Z,43.55
2023-04-27T23:47:26.260Z,43.45
2023-04-27T23:49:56.534Z,43.53
2023-04-27T23:52:29.455Z,43.95
2023-04-27T23:55:00.527Z,44.00
2023-04-27T23:57:30.549Z,43.84
